sensor_id;sensor_type;location;lat;lon;timestamp;P1;durP1;ratioP1;P2;durP2;ratioP2
8552;SDS011;73833;51.014;16.950;2023-12-20T08:39:27;8.98;;;4.97;;
8552;SDS011;73833;51.014;16.950;2023-12-20T08:41:52;7.82;;;4.53;;
8552;SDS011;73833;51.014;16.950;2023-12-20T08:44:17;10.77;;;4.85;;
8552;SDS011;73833;51.014;16.950;2023-12-20T08:46:43;10.50;;;4.47;;
8552;SDS011;73833;51.014;16.950;2023-12-20T08:49:08;10.73;;;4.60;;
8552;SDS011;73833;51.014;16.950;2023-12-20T08:51:34;7.90;;;4.32;;
8552;SDS011;73833;51.014;16.950;2023-12-20T08:54:00;11.02;;;4.60;;
8552;SDS011;73833;51.014;16.950;2023-12-20T08:56:25;10.93;;;4.43;;
8552;SDS011;73833;51.014;16.950;2023-12-20T08:58:50;7.93;;;4.35;;
8552;SDS011;73833;51.014;16.950;2023-12-20T09:01:15;9.65;;;4.18;;
8552;SDS011;73833;51.014;16.950;2023-12-20T09:03:41;9.48;;;3.85;;
8552;SDS011;73833;51.014;16.950;2023-12-20T09:06:06;6.40;;;3.53;;
8552;SDS011;73833;51.014;16.950;2023-12-20T09:08:31;7.18;;;4.22;;
8552;SDS011;73833;51.014;16.950;2023-12-20T09:10:56;7.95;;;4.40;;
8552;SDS011;73833;51.014;16.950;2023-12-20T09:13:22;8.45;;;3.95;;
8552;SDS011;73833;51.014;16.950;2023-12-20T09:15:51;13.27;;;3.50;;
8552;SDS011;73833;51.014;16.950;2023-12-20T09:18:16;7.00;;;3.33;;
8552;SDS011;73833;51.014;16.950;2023-12-20T09:20:42;5.53;;;3.83;;
8552;SDS011;73833;51.014;16.950;2023-12-20T09:23:07;7.93;;;3.42;;
8552;SDS011;73833;51.014;16.950;2023-12-20T09:25:33;4.97;;;3.53;;
8552;SDS011;73833;51.014;16.950;2023-12-20T09:27:58;5.25;;;3.58;;
8552;SDS011;73833;51.014;16.950;2023-12-20T09:30:23;6.18;;;3.63;;
8552;SDS011;73833;51.014;16.950;2023-12-20T09:32:48;4.63;;;3.70;;
8552;SDS011;73833;51.014;16.950;2023-12-20T09:35:14;5.97;;;3.42;;
8552;SDS011;73833;51.014;16.950;2023-12-20T09:37:39;5.50;;;4.07;;
8552;SDS011;73833;51.014;16.950;2023-12-20T09:40:09;6.88;;;3.25;;
8552;SDS011;73833;51.014;16.950;2023-12-20T09:45:01;5.20;;;3.10;;
8552;SDS011;73833;51.014;16.950;2023-12-20T09:47:28;6.32;;;3.17;;
8552;SDS011;73833;51.014;16.950;2023-12-20T09:49:53;5.38;;;3.70;;
8552;SDS011;73833;51.014;16.950;2023-12-20T09:52:19;5.88;;;3.70;;
8552;SDS011;73833;51.014;16.950;2023-12-20T09:54:45;6.15;;;3.30;;
8552;SDS011;73833;51.014;16.950;2023-12-20T09:57:11;3.97;;;3.22;;
8552;SDS011;73833;51.014;16.950;2023-12-20T09:59:37;5.43;;;2.88;;
8552;SDS011;73833;51.014;16.950;2023-12-20T10:02:02;3.95;;;2.83;;
8552;SDS011;73833;51.014;16.950;2023-12-20T10:04:31;3.40;;;2.90;;
8552;SDS011;73833;51.014;16.950;2023-12-20T10:06:56;5.30;;;2.60;;
8552;SDS011;73833;51.014;16.950;2023-12-20T10:09:22;4.28;;;2.63;;
8552;SDS011;73833;51.014;16.950;2023-12-20T10:11:47;3.97;;;2.30;;
8552;SDS011;73833;51.014;16.950;2023-12-20T10:14:12;4.22;;;2.20;;
8552;SDS011;73833;51.014;16.950;2023-12-20T10:16:38;1.90;;;1.80;;
8552;SDS011;73833;51.014;16.950;2023-12-20T10:19:03;3.47;;;2.17;;
8552;SDS011;73833;51.014;16.950;2023-12-20T10:21:29;2.20;;;2.00;;
8552;SDS011;73833;51.014;16.950;2023-12-20T10:23:55;3.65;;;2.40;;
8552;SDS011;73833;51.014;16.950;2023-12-20T10:26:20;4.45;;;2.05;;
8552;SDS011;73833;51.014;16.950;2023-12-20T10:28:46;2.05;;;1.92;;
8552;SDS011;73833;51.014;16.950;2023-12-20T10:31:25;2.67;;;2.15;;
8552;SDS011;73833;51.014;16.950;2023-12-20T10:33:50;5.13;;;2.03;;
8552;SDS011;73833;51.014;16.950;2023-12-20T10:36:15;6.67;;;2.20;;
8552;SDS011;73833;51.014;16.950;2023-12-20T10:38:41;3.75;;;2.03;;
8552;SDS011;73833;51.014;16.950;2023-12-20T10:41:07;3.03;;;2.17;;
8552;SDS011;73833;51.014;16.950;2023-12-20T10:43:33;2.38;;;2.17;;
8552;SDS011;73833;51.014;16.950;2023-12-20T10:45:59;2.50;;;2.30;;
8552;SDS011;73833;51.014;16.950;2023-12-20T10:48:24;2.42;;;2.22;;
8552;SDS011;73833;51.014;16.950;2023-12-20T10:50:54;5.28;;;2.53;;
8552;SDS011;73833;51.014;16.950;2023-12-20T10:53:20;4.85;;;2.53;;
8552;SDS011;73833;51.014;16.950;2023-12-20T10:55:46;3.42;;;2.20;;
8552;SDS011;73833;51.014;16.950;2023-12-20T10:58:12;2.10;;;1.95;;
8552;SDS011;73833;51.014;16.950;2023-12-20T11:00:39;2.40;;;1.95;;
8552;SDS011;73833;51.014;16.950;2023-12-20T11:03:05;4.20;;;2.30;;
8552;SDS011;73833;51.014;16.950;2023-12-20T11:05:36;5.70;;;2.25;;
8552;SDS011;73833;51.014;16.950;2023-12-20T11:08:10;2.63;;;2.17;;
8552;SDS011;73833;51.014;16.950;2023-12-20T11:10:39;3.05;;;2.20;;
8552;SDS011;73833;51.014;16.950;2023-12-20T11:13:20;9.27;;;2.22;;
8552;SDS011;73833;51.014;16.950;2023-12-20T11:15:46;2.53;;;1.92;;
8552;SDS011;73833;51.014;16.950;2023-12-20T11:18:11;2.47;;;2.30;;
8552;SDS011;73833;51.014;16.950;2023-12-20T11:20:37;2.50;;;2.30;;
8552;SDS011;73833;51.014;16.950;2023-12-20T11:23:03;5.13;;;2.40;;
8552;SDS011;73833;51.014;16.950;2023-12-20T11:25:28;2.13;;;1.92;;
8552;SDS011;73833;51.014;16.950;2023-12-20T11:28:07;2.80;;;2.00;;
8552;SDS011;73833;51.014;16.950;2023-12-20T11:30:51;2.17;;;2.00;;
8552;SDS011;73833;51.014;16.950;2023-12-20T11:33:17;3.75;;;2.15;;
8552;SDS011;73833;51.014;16.950;2023-12-20T11:35:46;2.58;;;2.38;;
8552;SDS011;73833;51.014;16.950;2023-12-20T11:38:12;3.55;;;2.50;;
8552;SDS011;73833;51.014;16.950;2023-12-20T11:40:38;2.80;;;2.22;;
8552;SDS011;73833;51.014;16.950;2023-12-20T11:43:03;2.72;;;2.53;;
8552;SDS011;73833;51.014;16.950;2023-12-20T11:45:32;2.88;;;2.55;;
8552;SDS011;73833;51.014;16.950;2023-12-20T11:47:59;2.97;;;2.53;;
8552;SDS011;73833;51.014;16.950;2023-12-20T11:50:24;3.78;;;2.70;;
8552;SDS011;73833;51.014;16.950;2023-12-20T11:52:50;3.50;;;2.47;;
8552;SDS011;73833;51.014;16.950;2023-12-20T11:55:16;2.22;;;2.08;;
8552;SDS011;73833;51.014;16.950;2023-12-20T11:57:42;3.53;;;2.28;;
8552;SDS011;73833;51.014;16.950;2023-12-20T12:00:07;20.48;;;4.35;;
8552;SDS011;73833;51.014;16.950;2023-12-20T12:02:33;8.50;;;3.43;;
8552;SDS011;73833;51.014;16.950;2023-12-20T12:05:01;11.83;;;3.43;;
8552;SDS011;73833;51.014;16.950;2023-12-20T12:07:27;6.85;;;3.13;;
8552;SDS011;73833;51.014;16.950;2023-12-20T12:09:52;5.35;;;3.40;;
8552;SDS011;73833;51.014;16.950;2023-12-20T12:12:17;9.25;;;3.58;;
8552;SDS011;73833;51.014;16.950;2023-12-20T12:14:44;5.03;;;2.85;;
8552;SDS011;73833;51.014;16.950;2023-12-20T12:17:12;9.65;;;3.33;;
8552;SDS011;73833;51.014;16.950;2023-12-20T12:19:38;6.07;;;3.15;;
8552;SDS011;73833;51.014;16.950;2023-12-20T12:22:04;5.00;;;2.78;;
8552;SDS011;73833;51.014;16.950;2023-12-20T12:24:32;4.63;;;3.10;;
8552;SDS011;73833;51.014;16.950;2023-12-20T12:26:57;4.68;;;3.00;;
8552;SDS011;73833;51.014;16.950;2023-12-20T12:29:23;3.78;;;2.90;;
8552;SDS011;73833;51.014;16.950;2023-12-20T12:31:49;5.88;;;3.00;;
8552;SDS011;73833;51.014;16.950;2023-12-20T12:34:14;8.18;;;2.80;;
8552;SDS011;73833;51.014;16.950;2023-12-20T12:36:41;7.70;;;3.70;;
8552;SDS011;73833;51.014;16.950;2023-12-20T12:39:06;5.45;;;2.60;;
8552;SDS011;73833;51.014;16.950;2023-12-20T12:41:31;3.70;;;2.90;;
8552;SDS011;73833;51.014;16.950;2023-12-20T12:43:57;5.82;;;2.97;;
8552;SDS011;73833;51.014;16.950;2023-12-20T12:46:22;4.78;;;3.05;;
8552;SDS011;73833;51.014;16.950;2023-12-20T12:48:47;5.93;;;2.75;;
8552;SDS011;73833;51.014;16.950;2023-12-20T12:51:14;6.60;;;3.17;;
8552;SDS011;73833;51.014;16.950;2023-12-20T12:53:39;4.22;;;3.33;;
8552;SDS011;73833;51.014;16.950;2023-12-20T12:56:05;5.82;;;3.45;;
8552;SDS011;73833;51.014;16.950;2023-12-20T12:58:30;4.38;;;3.35;;
8552;SDS011;73833;51.014;16.950;2023-12-20T13:00:55;8.05;;;3.30;;
8552;SDS011;73833;51.014;16.950;2023-12-20T13:03:21;5.95;;;3.30;;
8552;SDS011;73833;51.014;16.950;2023-12-20T13:05:46;6.97;;;3.22;;
8552;SDS011;73833;51.014;16.950;2023-12-20T13:08:13;8.57;;;3.65;;
8552;SDS011;73833;51.014;16.950;2023-12-20T13:10:38;5.35;;;3.28;;
8552;SDS011;73833;51.014;16.950;2023-12-20T13:13:04;6.45;;;3.33;;
8552;SDS011;73833;51.014;16.950;2023-12-20T13:15:29;6.57;;;3.58;;
8552;SDS011;73833;51.014;16.950;2023-12-20T13:17:55;5.25;;;3.45;;
8552;SDS011;73833;51.014;16.950;2023-12-20T13:20:20;6.28;;;3.08;;
8552;SDS011;73833;51.014;16.950;2023-12-20T13:22:47;5.75;;;3.70;;
8552;SDS011;73833;51.014;16.950;2023-12-20T13:25:12;5.35;;;3.10;;
8552;SDS011;73833;51.014;16.950;2023-12-20T13:27:38;6.28;;;3.00;;
8552;SDS011;73833;51.014;16.950;2023-12-20T13:30:03;5.72;;;3.40;;
8552;SDS011;73833;51.014;16.950;2023-12-20T13:32:28;5.15;;;3.22;;
8552;SDS011;73833;51.014;16.950;2023-12-20T13:34:54;7.78;;;3.58;;
8552;SDS011;73833;51.014;16.950;2023-12-20T13:37:19;4.15;;;3.20;;
8552;SDS011;73833;51.014;16.950;2023-12-20T13:39:45;5.97;;;3.00;;
8552;SDS011;73833;51.014;16.950;2023-12-20T13:42:11;4.53;;;3.05;;
8552;SDS011;73833;51.014;16.950;2023-12-20T13:44:36;4.25;;;2.97;;
8552;SDS011;73833;51.014;16.950;2023-12-20T13:47:01;5.80;;;3.20;;
8552;SDS011;73833;51.014;16.950;2023-12-20T13:49:27;4.40;;;2.80;;
8552;SDS011;73833;51.014;16.950;2023-12-20T13:51:53;3.88;;;2.78;;
8552;SDS011;73833;51.014;16.950;2023-12-20T13:54:19;3.42;;;2.67;;
8552;SDS011;73833;51.014;16.950;2023-12-20T13:56:46;4.70;;;2.80;;
8552;SDS011;73833;51.014;16.950;2023-12-20T13:59:11;4.28;;;2.53;;
8552;SDS011;73833;51.014;16.950;2023-12-20T14:01:38;3.20;;;2.63;;
8552;SDS011;73833;51.014;16.950;2023-12-20T14:04:03;4.97;;;2.97;;
8552;SDS011;73833;51.014;16.950;2023-12-20T14:06:28;3.63;;;2.88;;
8552;SDS011;73833;51.014;16.950;2023-12-20T14:08:54;5.20;;;2.78;;
8552;SDS011;73833;51.014;16.950;2023-12-20T14:11:19;5.45;;;2.83;;
8552;SDS011;73833;51.014;16.950;2023-12-20T14:13:45;3.70;;;2.58;;
8552;SDS011;73833;51.014;16.950;2023-12-20T14:16:10;3.65;;;2.60;;
8552;SDS011;73833;51.014;16.950;2023-12-20T14:18:35;3.90;;;2.90;;
8552;SDS011;73833;51.014;16.950;2023-12-20T14:21:01;2.85;;;2.65;;
8552;SDS011;73833;51.014;16.950;2023-12-20T14:23:26;4.05;;;3.05;;
8552;SDS011;73833;51.014;16.950;2023-12-20T14:25:51;3.40;;;2.60;;
8552;SDS011;73833;51.014;16.950;2023-12-20T14:28:16;4.97;;;2.50;;
8552;SDS011;73833;51.014;16.950;2023-12-20T14:30:42;4.90;;;2.83;;
8552;SDS011;73833;51.014;16.950;2023-12-20T14:33:07;3.15;;;2.70;;
8552;SDS011;73833;51.014;16.950;2023-12-20T14:35:33;2.80;;;2.55;;
8552;SDS011;73833;51.014;16.950;2023-12-20T14:37:58;5.60;;;3.35;;
8552;SDS011;73833;51.014;16.950;2023-12-20T14:40:23;3.42;;;2.70;;
8552;SDS011;73833;51.014;16.950;2023-12-20T14:42:49;6.97;;;2.70;;
8552;SDS011;73833;51.014;16.950;2023-12-20T14:45:15;4.57;;;2.72;;
8552;SDS011;73833;51.014;16.950;2023-12-20T14:47:43;6.40;;;2.88;;
8552;SDS011;73833;51.014;16.950;2023-12-20T14:50:09;6.45;;;2.78;;
8552;SDS011;73833;51.014;16.950;2023-12-20T14:52:34;4.28;;;2.80;;
8552;SDS011;73833;51.014;16.950;2023-12-20T14:55:00;4.50;;;2.60;;
8552;SDS011;73833;51.014;16.950;2023-12-20T14:57:25;9.38;;;2.60;;
8552;SDS011;73833;51.014;16.950;2023-12-20T14:59:51;4.22;;;2.60;;
8552;SDS011;73833;51.014;16.950;2023-12-20T15:02:16;2.88;;;2.50;;
8552;SDS011;73833;51.014;16.950;2023-12-20T15:04:41;4.15;;;2.55;;
8552;SDS011;73833;51.014;16.950;2023-12-20T15:07:06;3.97;;;2.90;;
8552;SDS011;73833;51.014;16.950;2023-12-20T15:09:32;16.60;;;3.00;;
8552;SDS011;73833;51.014;16.950;2023-12-20T15:11:57;3.92;;;2.60;;
8552;SDS011;73833;51.014;16.950;2023-12-20T15:14:22;6.88;;;2.63;;
8552;SDS011;73833;51.014;16.950;2023-12-20T15:16:47;5.30;;;2.63;;
8552;SDS011;73833;51.014;16.950;2023-12-20T15:19:13;2.90;;;2.17;;
8552;SDS011;73833;51.014;16.950;2023-12-20T15:21:38;4.97;;;2.70;;
8552;SDS011;73833;51.014;16.950;2023-12-20T15:24:07;3.38;;;2.63;;
8552;SDS011;73833;51.014;16.950;2023-12-20T15:26:39;3.08;;;2.75;;
8552;SDS011;73833;51.014;16.950;2023-12-20T15:29:05;6.85;;;2.40;;
8552;SDS011;73833;51.014;16.950;2023-12-20T15:31:31;10.40;;;2.60;;
8552;SDS011;73833;51.014;16.950;2023-12-20T15:33:57;8.20;;;2.92;;
8552;SDS011;73833;51.014;16.950;2023-12-20T15:36:22;5.38;;;2.35;;
8552;SDS011;73833;51.014;16.950;2023-12-20T15:38:48;4.72;;;2.50;;
8552;SDS011;73833;51.014;16.950;2023-12-20T15:41:19;4.03;;;2.80;;
8552;SDS011;73833;51.014;16.950;2023-12-20T15:43:45;4.88;;;2.70;;
8552;SDS011;73833;51.014;16.950;2023-12-20T15:46:10;3.88;;;2.92;;
8552;SDS011;73833;51.014;16.950;2023-12-20T15:48:35;5.50;;;2.72;;
8552;SDS011;73833;51.014;16.950;2023-12-20T15:51:07;5.00;;;2.90;;
8552;SDS011;73833;51.014;16.950;2023-12-20T15:53:33;6.60;;;2.75;;
8552;SDS011;73833;51.014;16.950;2023-12-20T15:55:58;4.55;;;2.42;;
8552;SDS011;73833;51.014;16.950;2023-12-20T15:58:23;7.53;;;2.70;;
8552;SDS011;73833;51.014;16.950;2023-12-20T16:00:49;3.42;;;2.67;;
8552;SDS011;73833;51.014;16.950;2023-12-20T16:03:14;3.75;;;2.72;;
8552;SDS011;73833;51.014;16.950;2023-12-20T16:05:39;5.00;;;3.13;;
8552;SDS011;73833;51.014;16.950;2023-12-20T16:08:05;4.20;;;3.13;;
8552;SDS011;73833;51.014;16.950;2023-12-20T16:10:30;6.45;;;2.90;;
8552;SDS011;73833;51.014;16.950;2023-12-20T16:12:55;8.10;;;3.00;;
8552;SDS011;73833;51.014;16.950;2023-12-20T16:15:20;4.75;;;2.92;;
8552;SDS011;73833;51.014;16.950;2023-12-20T16:17:46;5.97;;;3.53;;
8552;SDS011;73833;51.014;16.950;2023-12-20T16:20:12;3.53;;;2.65;;
8552;SDS011;73833;51.014;16.950;2023-12-20T16:22:38;3.03;;;2.72;;
8552;SDS011;73833;51.014;16.950;2023-12-20T16:25:03;6.22;;;3.20;;
8552;SDS011;73833;51.014;16.950;2023-12-20T16:27:28;3.47;;;2.85;;
8552;SDS011;73833;51.014;16.950;2023-12-20T16:29:54;3.58;;;2.97;;
8552;SDS011;73833;51.014;16.950;2023-12-20T16:32:19;3.58;;;2.70;;
8552;SDS011;73833;51.014;16.950;2023-12-20T16:34:44;4.30;;;3.10;;
8552;SDS011;73833;51.014;16.950;2023-12-20T16:37:09;6.45;;;2.97;;
8552;SDS011;73833;51.014;16.950;2023-12-20T16:39:35;4.60;;;2.97;;
8552;SDS011;73833;51.014;16.950;2023-12-20T16:42:00;5.90;;;3.00;;
8552;SDS011;73833;51.014;16.950;2023-12-20T16:44:25;4.25;;;3.10;;
8552;SDS011;73833;51.014;16.950;2023-12-20T16:46:51;4.40;;;3.28;;
8552;SDS011;73833;51.014;16.950;2023-12-20T16:49:16;3.88;;;3.35;;
8552;SDS011;73833;51.014;16.950;2023-12-20T16:51:41;3.50;;;3.20;;
8552;SDS011;73833;51.014;16.950;2023-12-20T16:54:07;4.07;;;3.47;;
8552;SDS011;73833;51.014;16.950;2023-12-20T16:56:32;4.53;;;3.28;;
8552;SDS011;73833;51.014;16.950;2023-12-20T16:58:57;4.68;;;3.35;;
8552;SDS011;73833;51.014;16.950;2023-12-20T17:01:23;7.82;;;3.08;;
8552;SDS011;73833;51.014;16.950;2023-12-20T17:03:50;4.60;;;2.95;;
8552;SDS011;73833;51.014;16.950;2023-12-20T17:06:16;3.90;;;2.92;;
8552;SDS011;73833;51.014;16.950;2023-12-20T17:08:41;4.80;;;3.38;;
8552;SDS011;73833;51.014;16.950;2023-12-20T17:11:08;4.47;;;3.30;;
8552;SDS011;73833;51.014;16.950;2023-12-20T17:13:33;4.68;;;3.40;;
8552;SDS011;73833;51.014;16.950;2023-12-20T17:15:59;3.90;;;3.17;;
8552;SDS011;73833;51.014;16.950;2023-12-20T17:18:24;3.50;;;3.15;;
8552;SDS011;73833;51.014;16.950;2023-12-20T17:20:50;5.38;;;3.17;;
8552;SDS011;73833;51.014;16.950;2023-12-20T17:23:16;5.93;;;3.55;;
8552;SDS011;73833;51.014;16.950;2023-12-20T17:25:41;3.63;;;2.92;;
8552;SDS011;73833;51.014;16.950;2023-12-20T17:28:07;4.45;;;3.00;;
8552;SDS011;73833;51.014;16.950;2023-12-20T17:30:32;4.20;;;3.47;;
8552;SDS011;73833;51.014;16.950;2023-12-20T17:32:58;7.00;;;3.38;;
8552;SDS011;73833;51.014;16.950;2023-12-20T17:35:23;3.95;;;3.03;;
8552;SDS011;73833;51.014;16.950;2023-12-20T17:37:48;3.90;;;3.17;;
8552;SDS011;73833;51.014;16.950;2023-12-20T17:40:13;4.13;;;3.05;;
8552;SDS011;73833;51.014;16.950;2023-12-20T17:42:39;3.25;;;2.90;;
8552;SDS011;73833;51.014;16.950;2023-12-20T17:45:05;3.58;;;3.28;;
8552;SDS011;73833;51.014;16.950;2023-12-20T17:47:30;5.88;;;2.97;;
8552;SDS011;73833;51.014;16.950;2023-12-20T17:49:55;4.15;;;3.25;;
8552;SDS011;73833;51.014;16.950;2023-12-20T17:52:21;4.57;;;3.00;;
8552;SDS011;73833;51.014;16.950;2023-12-20T17:54:46;4.93;;;3.13;;
8552;SDS011;73833;51.014;16.950;2023-12-20T17:57:11;3.42;;;3.13;;
8552;SDS011;73833;51.014;16.950;2023-12-20T17:59:36;3.33;;;2.80;;
8552;SDS011;73833;51.014;16.950;2023-12-20T18:02:04;4.88;;;2.83;;
8552;SDS011;73833;51.014;16.950;2023-12-20T18:04:30;4.20;;;3.05;;
8552;SDS011;73833;51.014;16.950;2023-12-20T18:06:55;4.68;;;3.08;;
8552;SDS011;73833;51.014;16.950;2023-12-20T18:09:21;3.05;;;2.85;;
8552;SDS011;73833;51.014;16.950;2023-12-20T18:11:46;3.53;;;3.22;;
8552;SDS011;73833;51.014;16.950;2023-12-20T18:14:11;3.17;;;2.95;;
8552;SDS011;73833;51.014;16.950;2023-12-20T18:16:36;3.75;;;2.85;;
8552;SDS011;73833;51.014;16.950;2023-12-20T18:19:02;4.15;;;2.80;;
8552;SDS011;73833;51.014;16.950;2023-12-20T18:21:28;3.63;;;3.00;;
8552;SDS011;73833;51.014;16.950;2023-12-20T18:23:53;4.07;;;3.20;;
8552;SDS011;73833;51.014;16.950;2023-12-20T18:26:18;3.00;;;2.55;;
8552;SDS011;73833;51.014;16.950;2023-12-20T18:28:43;3.72;;;3.13;;
8552;SDS011;73833;51.014;16.950;2023-12-20T18:31:09;4.13;;;3.20;;
8552;SDS011;73833;51.014;16.950;2023-12-20T18:33:34;4.30;;;3.10;;
8552;SDS011;73833;51.014;16.950;2023-12-20T18:36:00;2.80;;;2.60;;
8552;SDS011;73833;51.014;16.950;2023-12-20T18:38:25;2.67;;;2.47;;
8552;SDS011;73833;51.014;16.950;2023-12-20T18:41:01;3.22;;;2.83;;
8552;SDS011;73833;51.014;16.950;2023-12-20T18:43:26;3.30;;;2.55;;
8552;SDS011;73833;51.014;16.950;2023-12-20T18:45:52;4.43;;;2.88;;
8552;SDS011;73833;51.014;16.950;2023-12-20T18:48:17;3.20;;;2.58;;
8552;SDS011;73833;51.014;16.950;2023-12-20T18:50:43;5.18;;;2.80;;
8552;SDS011;73833;51.014;16.950;2023-12-20T18:53:08;3.53;;;3.15;;
8552;SDS011;73833;51.014;16.950;2023-12-20T18:55:33;3.13;;;2.60;;
8552;SDS011;73833;51.014;16.950;2023-12-20T18:57:58;4.63;;;2.70;;
8552;SDS011;73833;51.014;16.950;2023-12-20T19:00:24;5.45;;;3.10;;
8552;SDS011;73833;51.014;16.950;2023-12-20T19:02:50;4.28;;;3.10;;
8552;SDS011;73833;51.014;16.950;2023-12-20T19:05:15;3.58;;;2.70;;
8552;SDS011;73833;51.014;16.950;2023-12-20T19:07:41;3.05;;;2.75;;
8552;SDS011;73833;51.014;16.950;2023-12-20T19:10:06;5.30;;;3.00;;
8552;SDS011;73833;51.014;16.950;2023-12-20T19:12:31;5.25;;;3.15;;
8552;SDS011;73833;51.014;16.950;2023-12-20T19:14:57;8.80;;;2.55;;
8552;SDS011;73833;51.014;16.950;2023-12-20T19:17:22;4.40;;;3.17;;
8552;SDS011;73833;51.014;16.950;2023-12-20T19:19:47;5.03;;;2.80;;
8552;SDS011;73833;51.014;16.950;2023-12-20T19:22:12;6.47;;;3.10;;
8552;SDS011;73833;51.014;16.950;2023-12-20T19:24:38;6.75;;;3.00;;
8552;SDS011;73833;51.014;16.950;2023-12-20T19:27:03;5.57;;;3.20;;
8552;SDS011;73833;51.014;16.950;2023-12-20T19:29:28;7.15;;;3.08;;
8552;SDS011;73833;51.014;16.950;2023-12-20T19:31:53;5.93;;;3.42;;
8552;SDS011;73833;51.014;16.950;2023-12-20T19:34:19;5.43;;;2.80;;
8552;SDS011;73833;51.014;16.950;2023-12-20T19:36:44;5.15;;;2.90;;
8552;SDS011;73833;51.014;16.950;2023-12-20T19:39:09;3.45;;;2.65;;
8552;SDS011;73833;51.014;16.950;2023-12-20T19:41:34;5.13;;;2.78;;
8552;SDS011;73833;51.014;16.950;2023-12-20T19:44:00;7.72;;;3.03;;
8552;SDS011;73833;51.014;16.950;2023-12-20T19:46:26;8.38;;;3.20;;
8552;SDS011;73833;51.014;16.950;2023-12-20T19:48:51;4.22;;;3.08;;
8552;SDS011;73833;51.014;16.950;2023-12-20T19:51:17;4.72;;;3.22;;
8552;SDS011;73833;51.014;16.950;2023-12-20T19:53:42;5.32;;;2.90;;
8552;SDS011;73833;51.014;16.950;2023-12-20T19:56:07;3.80;;;2.90;;
8552;SDS011;73833;51.014;16.950;2023-12-20T19:58:33;3.33;;;2.60;;
8552;SDS011;73833;51.014;16.950;2023-12-20T20:00:58;5.88;;;3.03;;
8552;SDS011;73833;51.014;16.950;2023-12-20T20:03:23;9.05;;;3.40;;
8552;SDS011;73833;51.014;16.950;2023-12-20T20:05:49;5.85;;;2.75;;
8552;SDS011;73833;51.014;16.950;2023-12-20T20:08:14;5.95;;;2.90;;
8552;SDS011;73833;51.014;16.950;2023-12-20T20:10:39;8.02;;;3.13;;
8552;SDS011;73833;51.014;16.950;2023-12-20T20:13:05;8.00;;;2.47;;
8552;SDS011;73833;51.014;16.950;2023-12-20T20:15:31;6.15;;;3.00;;
8552;SDS011;73833;51.014;16.950;2023-12-20T20:17:56;3.75;;;2.70;;
8552;SDS011;73833;51.014;16.950;2023-12-20T20:20:21;2.90;;;2.22;;
8552;SDS011;73833;51.014;16.950;2023-12-20T20:22:47;5.15;;;3.05;;
8552;SDS011;73833;51.014;16.950;2023-12-20T20:25:12;3.95;;;2.80;;
8552;SDS011;73833;51.014;16.950;2023-12-20T20:27:38;7.38;;;2.85;;
8552;SDS011;73833;51.014;16.950;2023-12-20T20:30:04;6.28;;;3.00;;
8552;SDS011;73833;51.014;16.950;2023-12-20T20:32:30;3.58;;;2.67;;
8552;SDS011;73833;51.014;16.950;2023-12-20T20:34:55;3.33;;;2.78;;
8552;SDS011;73833;51.014;16.950;2023-12-20T20:37:20;5.15;;;2.70;;
8552;SDS011;73833;51.014;16.950;2023-12-20T20:39:45;3.13;;;2.45;;
8552;SDS011;73833;51.014;16.950;2023-12-20T20:42:10;5.10;;;3.05;;
8552;SDS011;73833;51.014;16.950;2023-12-20T20:44:36;4.97;;;2.13;;
8552;SDS011;73833;51.014;16.950;2023-12-20T20:47:01;5.13;;;2.40;;
8552;SDS011;73833;51.014;16.950;2023-12-20T20:49:27;5.32;;;2.53;;
8552;SDS011;73833;51.014;16.950;2023-12-20T20:51:53;6.15;;;2.65;;
8552;SDS011;73833;51.014;16.950;2023-12-20T20:54:18;2.88;;;2.40;;
8552;SDS011;73833;51.014;16.950;2023-12-20T20:56:44;3.17;;;2.25;;
8552;SDS011;73833;51.014;16.950;2023-12-20T20:59:09;3.35;;;2.47;;
8552;SDS011;73833;51.014;16.950;2023-12-20T21:01:35;3.60;;;2.38;;
8552;SDS011;73833;51.014;16.950;2023-12-20T21:04:00;3.05;;;2.10;;
8552;SDS011;73833;51.014;16.950;2023-12-20T21:06:25;7.78;;;2.75;;
8552;SDS011;73833;51.014;16.950;2023-12-20T21:08:54;3.13;;;2.92;;
8552;SDS011;73833;51.014;16.950;2023-12-20T21:11:19;4.47;;;2.55;;
8552;SDS011;73833;51.014;16.950;2023-12-20T21:13:46;5.00;;;2.60;;
8552;SDS011;73833;51.014;16.950;2023-12-20T21:16:13;2.95;;;2.65;;
8552;SDS011;73833;51.014;16.950;2023-12-20T21:18:39;4.13;;;2.50;;
8552;SDS011;73833;51.014;16.950;2023-12-20T21:21:04;4.93;;;2.67;;
8552;SDS011;73833;51.014;16.950;2023-12-20T21:23:29;3.97;;;2.38;;
8552;SDS011;73833;51.014;16.950;2023-12-20T21:25:55;2.40;;;2.20;;
8552;SDS011;73833;51.014;16.950;2023-12-20T21:28:20;2.60;;;2.47;;
8552;SDS011;73833;51.014;16.950;2023-12-20T21:30:45;4.13;;;2.30;;
8552;SDS011;73833;51.014;16.950;2023-12-20T21:33:11;2.92;;;2.20;;
8552;SDS011;73833;51.014;16.950;2023-12-20T21:35:36;5.47;;;2.72;;
8552;SDS011;73833;51.014;16.950;2023-12-20T21:38:01;3.85;;;2.47;;
8552;SDS011;73833;51.014;16.950;2023-12-20T21:40:27;2.45;;;2.22;;
8552;SDS011;73833;51.014;16.950;2023-12-20T21:42:53;3.40;;;2.10;;
8552;SDS011;73833;51.014;16.950;2023-12-20T21:45:18;3.92;;;2.38;;
8552;SDS011;73833;51.014;16.950;2023-12-20T21:47:43;2.63;;;2.22;;
8552;SDS011;73833;51.014;16.950;2023-12-20T21:50:09;3.85;;;2.72;;
8552;SDS011;73833;51.014;16.950;2023-12-20T21:52:34;4.85;;;2.95;;
8552;SDS011;73833;51.014;16.950;2023-12-20T21:54:59;2.92;;;2.40;;
8552;SDS011;73833;51.014;16.950;2023-12-20T21:57:24;4.63;;;2.35;;
8552;SDS011;73833;51.014;16.950;2023-12-20T21:59:50;3.75;;;2.42;;
8552;SDS011;73833;51.014;16.950;2023-12-20T22:02:15;2.67;;;2.47;;
8552;SDS011;73833;51.014;16.950;2023-12-20T22:04:40;5.13;;;2.40;;
8552;SDS011;73833;51.014;16.950;2023-12-20T22:07:06;3.40;;;2.55;;
8552;SDS011;73833;51.014;16.950;2023-12-20T22:09:31;5.03;;;2.30;;
8552;SDS011;73833;51.014;16.950;2023-12-20T22:11:56;2.88;;;2.05;;
8552;SDS011;73833;51.014;16.950;2023-12-20T22:14:22;2.25;;;1.90;;
8552;SDS011;73833;51.014;16.950;2023-12-20T22:16:47;2.35;;;1.90;;
8552;SDS011;73833;51.014;16.950;2023-12-20T22:19:12;2.67;;;2.10;;
8552;SDS011;73833;51.014;16.950;2023-12-20T22:21:37;2.55;;;2.25;;
8552;SDS011;73833;51.014;16.950;2023-12-20T22:24:03;4.47;;;2.38;;
8552;SDS011;73833;51.014;16.950;2023-12-20T22:26:29;2.22;;;2.03;;
8552;SDS011;73833;51.014;16.950;2023-12-20T22:28:54;3.85;;;2.35;;
8552;SDS011;73833;51.014;16.950;2023-12-20T22:31:19;2.92;;;2.65;;
8552;SDS011;73833;51.014;16.950;2023-12-20T22:33:44;2.53;;;2.33;;
8552;SDS011;73833;51.014;16.950;2023-12-20T22:36:10;4.35;;;1.95;;
8552;SDS011;73833;51.014;16.950;2023-12-20T22:38:35;5.55;;;2.28;;
8552;SDS011;73833;51.014;16.950;2023-12-20T22:41:00;3.53;;;2.13;;
8552;SDS011;73833;51.014;16.950;2023-12-20T22:43:26;2.65;;;2.15;;
8552;SDS011;73833;51.014;16.950;2023-12-20T22:45:51;2.60;;;2.30;;
8552;SDS011;73833;51.014;16.950;2023-12-20T22:48:17;3.80;;;2.28;;
8552;SDS011;73833;51.014;16.950;2023-12-20T22:50:42;5.55;;;2.70;;
8552;SDS011;73833;51.014;16.950;2023-12-20T22:53:08;5.72;;;2.97;;
8552;SDS011;73833;51.014;16.950;2023-12-20T22:55:33;3.50;;;2.50;;
8552;SDS011;73833;51.014;16.950;2023-12-20T22:57:58;4.70;;;2.40;;
8552;SDS011;73833;51.014;16.950;2023-12-20T23:00:23;7.28;;;3.00;;
8552;SDS011;73833;51.014;16.950;2023-12-20T23:02:49;4.15;;;2.90;;
8552;SDS011;73833;51.014;16.950;2023-12-20T23:05:14;5.07;;;2.78;;
8552;SDS011;73833;51.014;16.950;2023-12-20T23:07:40;7.60;;;2.60;;
8552;SDS011;73833;51.014;16.950;2023-12-20T23:10:05;7.65;;;2.80;;
8552;SDS011;73833;51.014;16.950;2023-12-20T23:12:30;6.57;;;2.72;;
8552;SDS011;73833;51.014;16.950;2023-12-20T23:14:56;4.57;;;3.05;;
8552;SDS011;73833;51.014;16.950;2023-12-20T23:17:22;4.85;;;2.40;;
8552;SDS011;73833;51.014;16.950;2023-12-20T23:19:47;3.65;;;2.40;;